AIRPORT MAP

 RUNWAY INFORMATION

Runway 03 Runway length 4908 ft Runway width 98 ft
Runway elevation 10 ft Runway displaced threshold 656 ft Runway heading 20
Runway 21 Runway length 4908 ft Runway width 98 ft
Runway elevation 30 ft Runway displaced threshold 656 ft Runway heading 200

 AIRPORT FREQUENCIES

Type ATIS Name ATIS Frequency 129.925 MHZ
Type GND Name GND Frequency 129.8 MHZ
Type TWR Name TWR Frequency 129.8 MHZ

 AIRPORT NEAR NAVIGATION AIDS

Type NDB Name Donegal Frequency 361 KHZ

 METAR AND TAF INFORMATION

METAR FOR EIDL
ADDS - METARS form results

(0850 UTC 25 January 2020)
Data provider http://aviationweather.gov/metar/data/
 
METAR text: EIDL 250830Z 18018KT 9999 OVC029 07/06 Q1009
Conditions at: EIDL (DONEGAL ARPT , IE) observed 0830 UTC 25 January 2020
Temperature: 7.0°C (45°F)
Dewpoint: 6.0°C (43°F) [RH = 93%]
Pressure (altimeter): 29.79 inches Hg (1009.0 mb)
Winds: from the S (180 degrees) at 21 MPH (18 knots; 9.3 m/s)
Visibility: 6 or more miles (10+ km)
Ceiling: 2900 feet AGL
Clouds: overcast cloud deck at 2900 feet AGL
Weather: no significant weather observed at this time

METAR text: EIDL 250800Z 18015KT 9999 FEW011 OVC025 07/06 Q1009
Conditions at: EIDL (DONEGAL ARPT , IE) observed 0800 UTC 25 January 2020
Temperature: 7.0°C (45°F)
Dewpoint: 6.0°C (43°F) [RH = 93%]
Pressure (altimeter): 29.79 inches Hg (1009.0 mb)
Winds: from the S (180 degrees) at 17 MPH (15 knots; 7.7 m/s)
Visibility: 6 or more miles (10+ km)
Ceiling: 2500 feet AGL
Clouds: few clouds at 1100 feet AGL
overcast cloud deck at 2500 feet AGL
Weather: no significant weather observed at this time

Forecast for: EIDL (DONEGAL ARPT , IE)
Text: TAF EIDL 250800Z 2509/2518 19018KT 9999 SCT015 BKN020
Forecast period: 0900 to 1800 UTC 25 January 2020
Forecast type: FROM: standard forecast or significant change
Winds: from the S (190 degrees) at 21 MPH (18 knots; 9.3 m/s)
Visibility: 6 or more miles 10+ km)
Ceiling: 2000 feet AGL
Clouds: scattered clouds at 1500 feet AGL
broken clouds at 2000 feet AGL
Weather: no significant weather forecast for this period
Text: TEMPO 2509/2518 19020G30KT SCT008 BKN012
Forecast period: 0900 to 1800 UTC 25 January 2020
Forecast type: TEMPORARY: The following changes expected for less than half the time period
Winds: from the S (190 degrees) at 23 MPH (20 knots; 10.3 m/s)
gusting to 34 MPH (30 knots; 15.4 m/s)
Visibility: missing
Ceiling: 1200 feet AGL
Clouds: scattered clouds at 800 feet AGL
broken clouds at 1200 feet AGL
Weather: no significant weather forecast for this period